createdAt,value
2018-04-04T00:00:59.467Z,12.90
2018-04-04T00:01:59.605Z,12.80
2018-04-04T00:02:59.752Z,12.86
2018-04-04T00:03:59.887Z,12.95
2018-04-04T00:05:00.023Z,13.04
2018-04-04T00:06:00.161Z,12.93
2018-04-04T00:07:00.302Z,12.84
2018-04-04T00:08:00.440Z,13.05
2018-04-04T00:09:01.347Z,13.02
2018-04-04T00:11:33.254Z,12.93
2018-04-04T00:12:33.392Z,12.91
2018-04-04T00:13:33.529Z,12.80
2018-04-04T00:14:33.667Z,12.83
2018-04-04T00:15:33.802Z,12.96
2018-04-04T00:16:33.936Z,12.87
2018-04-04T00:17:34.783Z,12.87
2018-04-04T00:18:34.220Z,12.84
2018-04-04T00:19:34.366Z,12.80
2018-04-04T00:20:34.497Z,12.88
2018-04-04T00:21:34.631Z,12.93
2018-04-04T00:22:34.801Z,12.81
2018-04-04T00:23:34.948Z,12.83
2018-04-04T00:24:35.095Z,12.93
2018-04-04T00:25:35.233Z,12.86
2018-04-04T00:26:35.394Z,12.86
2018-04-04T00:27:35.646Z,12.95
2018-04-04T00:28:35.669Z,12.86
2018-04-04T00:29:35.804Z,12.91
2018-04-04T00:30:35.990Z,12.83
2018-04-04T00:31:36.106Z,12.84
2018-04-04T00:32:36.241Z,12.91
2018-04-04T00:33:36.375Z,12.96
2018-04-04T00:34:36.552Z,12.91
2018-04-04T00:35:36.642Z,12.87
2018-04-04T00:36:36.796Z,12.91
2018-04-04T00:37:36.946Z,12.83
2018-04-04T00:38:37.074Z,12.95
2018-04-04T00:39:37.279Z,12.96
2018-04-04T00:40:37.307Z,12.95
2018-04-04T00:41:37.439Z,12.83
2018-04-04T00:42:37.582Z,12.91
2018-04-04T00:43:37.714Z,12.80
2018-04-04T00:44:37.861Z,12.80
2018-04-04T00:45:37.991Z,12.83
2018-04-04T00:46:38.129Z,12.90
2018-04-04T00:47:38.267Z,12.73
2018-04-04T00:48:38.422Z,12.76
2018-04-04T00:49:38.563Z,12.73
2018-04-04T00:50:38.678Z,12.69
2018-04-04T00:51:38.817Z,12.72
2018-04-04T00:52:38.962Z,12.68
2018-04-04T00:53:39.093Z,12.65
2018-04-04T00:54:39.230Z,12.66
2018-04-04T00:55:39.365Z,12.63
2018-04-04T00:56:39.500Z,12.62
2018-04-04T00:57:39.644Z,12.55
2018-04-04T00:58:39.785Z,12.65
2018-04-04T00:59:39.916Z,12.55
2018-04-04T01:00:40.053Z,12.50
2018-04-04T01:01:40.187Z,12.40
2018-04-04T01:02:40.331Z,12.36
2018-04-04T01:03:40.462Z,12.30
2018-04-04T01:04:40.600Z,12.25
2018-04-04T01:05:40.811Z,12.26
2018-04-04T01:06:40.833Z,12.11
2018-04-04T01:07:40.972Z,12.08
2018-04-04T01:08:41.108Z,12.17
2018-04-04T01:09:41.257Z,12.14
2018-04-04T01:10:41.391Z,12.07
2018-04-04T01:11:41.529Z,12.18
2018-04-04T01:12:41.667Z,12.17
2018-04-04T01:13:41.803Z,12.21
2018-04-04T01:14:41.942Z,12.17
2018-04-04T01:15:42.090Z,12.13
2018-04-04T01:16:42.222Z,12.11
2018-04-04T01:17:42.354Z,12.17
2018-04-04T01:18:42.507Z,12.17
2018-04-04T01:19:42.632Z,12.08
2018-04-04T01:20:42.767Z,12.11
2018-04-04T01:21:42.904Z,12.05
2018-04-04T01:22:43.050Z,12.05
2018-04-04T01:23:43.177Z,11.97
2018-04-04T01:24:43.315Z,11.89
2018-04-04T01:25:43.460Z,11.79
2018-04-04T01:26:43.596Z,11.91
2018-04-04T01:27:43.734Z,11.95
2018-04-04T01:28:43.865Z,12.07
2018-04-04T01:29:44.005Z,12.11
2018-04-04T01:30:44.167Z,11.93
2018-04-04T01:31:44.299Z,11.95
2018-04-04T01:32:44.445Z,11.89
2018-04-04T01:33:44.585Z,11.74
2018-04-04T01:34:44.777Z,11.85
2018-04-04T01:35:44.913Z,11.80
2018-04-04T01:36:45.057Z,11.80
2018-04-04T01:37:45.196Z,11.89
2018-04-04T01:38:45.336Z,11.91
2018-04-04T01:39:45.469Z,11.95
2018-04-04T01:40:45.608Z,11.93
2018-04-04T01:41:45.745Z,11.96
2018-04-04T01:42:45.899Z,11.95
2018-04-04T01:43:46.038Z,11.97
2018-04-04T01:44:46.167Z,12.00
2018-04-04T01:45:46.306Z,12.00
2018-04-04T01:46:46.524Z,12.04
2018-04-04T01:47:46.595Z,12.00
2018-04-04T01:48:46.733Z,12.03
2018-04-04T01:49:46.871Z,12.08
2018-04-04T01:50:47.036Z,12.11
2018-04-04T01:51:47.166Z,12.11
2018-04-04T01:52:47.368Z,12.25
2018-04-04T01:53:47.530Z,12.07
2018-04-04T01:54:47.672Z,12.21
2018-04-04T01:55:47.809Z,12.13
2018-04-04T01:56:47.937Z,12.03
2018-04-04T01:57:48.095Z,11.85
2018-04-04T01:58:48.226Z,11.80
2018-04-04T01:59:48.361Z,11.74
2018-04-04T02:00:48.515Z,11.55
2018-04-04T02:01:48.769Z,11.37
2018-04-04T02:02:48.770Z,11.45
2018-04-04T02:03:48.902Z,11.52
2018-04-04T02:04:49.055Z,11.66
2018-04-04T02:05:49.187Z,11.51
2018-04-04T02:06:49.330Z,11.69
2018-04-04T02:07:49.494Z,11.70
2018-04-04T02:08:49.640Z,11.79
2018-04-04T02:09:49.772Z,11.85
2018-04-04T02:10:49.935Z,11.71
2018-04-04T02:11:50.053Z,11.77
2018-04-04T02:12:50.186Z,11.71
2018-04-04T02:13:50.326Z,11.84
2018-04-04T02:14:50.486Z,11.76
2018-04-04T02:15:50.620Z,11.87
2018-04-04T02:16:50.755Z,11.82
2018-04-04T02:17:50.889Z,11.82
2018-04-04T02:18:51.024Z,11.87
2018-04-04T02:19:51.154Z,11.88
2018-04-04T02:20:51.288Z,11.95
2018-04-04T02:21:51.425Z,11.96
2018-04-04T02:22:51.558Z,11.95
2018-04-04T02:23:51.699Z,11.91
2018-04-04T02:24:51.835Z,11.91
2018-04-04T02:25:51.974Z,11.97
2018-04-04T02:26:52.110Z,11.93
2018-04-04T02:27:52.252Z,11.62
2018-04-04T02:28:52.386Z,11.41
2018-04-04T02:29:52.517Z,11.40
2018-04-04T02:30:52.659Z,11.25
2018-04-04T02:31:52.795Z,11.34
2018-04-04T02:32:52.965Z,11.41
2018-04-04T02:33:53.110Z,11.46
2018-04-04T02:34:53.243Z,11.59
2018-04-04T02:35:53.384Z,11.56
2018-04-04T02:36:53.528Z,11.43
2018-04-04T02:37:53.659Z,11.48
2018-04-04T02:38:53.802Z,11.52
2018-04-04T02:39:53.941Z,11.51
2018-04-04T02:40:54.100Z,11.30
2018-04-04T02:41:54.232Z,11.30
2018-04-04T02:42:54.368Z,11.33
2018-04-04T02:43:54.505Z,11.40
2018-04-04T02:44:54.649Z,11.43
2018-04-04T02:45:54.787Z,11.46
2018-04-04T02:46:54.925Z,11.49
2018-04-04T02:47:55.079Z,11.54
2018-04-04T02:48:55.214Z,11.36
2018-04-04T02:49:55.354Z,11.48
2018-04-04T02:50:55.487Z,11.37
2018-04-04T02:51:55.645Z,11.37
2018-04-04T02:52:55.786Z,11.28
2018-04-04T02:53:55.919Z,11.20
2018-04-04T02:54:56.048Z,11.22
2018-04-04T02:55:56.188Z,11.12
2018-04-04T02:56:56.321Z,11.03
2018-04-04T02:57:56.469Z,11.05
2018-04-04T02:58:56.599Z,11.13
2018-04-04T02:59:56.742Z,11.08
2018-04-04T03:00:56.878Z,10.95
2018-04-04T03:01:57.014Z,10.87
2018-04-04T03:02:57.145Z,10.91
2018-04-04T03:03:57.285Z,11.04
2018-04-04T03:04:57.421Z,11.15
2018-04-04T03:05:57.560Z,11.09
2018-04-04T03:06:57.702Z,11.00
2018-04-04T03:07:57.830Z,11.09
2018-04-04T03:08:57.975Z,11.05
2018-04-04T03:09:58.123Z,11.12
2018-04-04T03:10:58.256Z,11.18
2018-04-04T03:11:58.396Z,11.11
2018-04-04T03:12:58.538Z,11.27
2018-04-04T03:13:58.678Z,11.18
2018-04-04T03:14:58.820Z,11.25
2018-04-04T03:15:58.957Z,11.19
2018-04-04T03:16:59.094Z,11.27
2018-04-04T03:17:59.263Z,11.22
2018-04-04T03:18:59.394Z,11.04
2018-04-04T03:19:59.527Z,11.15
2018-04-04T03:20:59.662Z,11.00
2018-04-04T03:22:00.409Z,11.04
2018-04-04T03:22:59.994Z,10.83
2018-04-04T03:24:00.134Z,10.94
2018-04-04T03:25:00.291Z,10.73
2018-04-04T03:26:00.462Z,10.78
2018-04-04T03:27:00.615Z,10.75
2018-04-04T03:28:00.767Z,10.78
2018-04-04T03:29:00.896Z,10.76
2018-04-04T03:30:01.027Z,10.87
2018-04-04T03:31:01.164Z,10.75
2018-04-04T03:32:01.301Z,10.85
2018-04-04T03:33:01.445Z,10.95
2018-04-04T03:34:01.582Z,10.79
2018-04-04T03:35:01.743Z,10.78
2018-04-04T03:36:01.865Z,10.79
2018-04-04T03:37:01.994Z,10.86
2018-04-04T03:38:02.127Z,10.90
2018-04-04T03:39:02.288Z,11.01
2018-04-04T03:40:02.413Z,11.01
2018-04-04T03:41:02.559Z,11.03
2018-04-04T03:42:02.754Z,11.09
2018-04-04T03:43:02.854Z,11.05
2018-04-04T03:44:02.986Z,11.18
2018-04-04T03:45:03.123Z,11.16
2018-04-04T03:46:03.253Z,11.16
2018-04-04T03:47:03.525Z,11.23
2018-04-04T03:48:03.542Z,11.23
2018-04-04T03:49:03.677Z,11.28
2018-04-04T03:50:03.814Z,11.18
2018-04-04T03:51:03.950Z,11.22
2018-04-04T03:52:04.090Z,11.20
2018-04-04T03:53:04.227Z,11.20
2018-04-04T03:54:04.367Z,11.28
2018-04-04T03:55:04.514Z,11.20
2018-04-04T03:56:04.876Z,11.23
2018-04-04T03:57:04.797Z,11.28
2018-04-04T03:58:04.928Z,11.18
2018-04-04T03:59:05.065Z,11.31
2018-04-04T04:00:05.198Z,11.31
2018-04-04T04:01:05.345Z,11.25
2018-04-04T04:02:05.477Z,11.20
2018-04-04T04:03:05.735Z,11.25
2018-04-04T04:04:05.849Z,11.20
2018-04-04T04:05:05.954Z,11.22
2018-04-04T04:06:06.095Z,11.16
2018-04-04T04:07:06.229Z,11.16
2018-04-04T04:08:06.383Z,11.19
2018-04-04T04:09:06.542Z,11.15
2018-04-04T04:10:06.671Z,11.18
2018-04-04T04:11:06.797Z,11.23
2018-04-04T04:12:06.928Z,11.22
2018-04-04T04:13:07.073Z,11.18
2018-04-04T04:14:07.232Z,11.16
2018-04-04T04:15:07.366Z,11.12
2018-04-04T04:16:07.524Z,11.13
2018-04-04T04:17:07.655Z,11.05
2018-04-04T04:18:07.815Z,11.05
2018-04-04T04:19:07.948Z,11.11
2018-04-04T04:20:08.081Z,11.08
2018-04-04T04:21:08.224Z,11.09
2018-04-04T04:22:08.377Z,10.98
2018-04-04T04:23:08.512Z,11.01
2018-04-04T04:24:08.646Z,11.01
2018-04-04T04:25:08.778Z,10.79
2018-04-04T04:26:09.052Z,10.93
2018-04-04T04:27:09.107Z,10.79
2018-04-04T04:28:09.243Z,10.79
2018-04-04T04:29:09.408Z,10.79
2018-04-04T04:30:09.537Z,10.67
2018-04-04T04:31:09.677Z,10.61
2018-04-04T04:32:09.814Z,10.61
2018-04-04T04:33:09.959Z,10.65
2018-04-04T04:34:10.091Z,10.73
2018-04-04T04:35:10.228Z,10.64
2018-04-04T04:36:10.375Z,10.55
2018-04-04T04:37:10.513Z,10.45
2018-04-04T04:38:10.650Z,10.61
2018-04-04T04:39:10.803Z,10.39
2018-04-04T04:40:10.964Z,10.41
2018-04-04T04:41:11.172Z,10.28
2018-04-04T04:42:11.187Z,10.36
2018-04-04T04:43:11.321Z,10.52
2018-04-04T04:44:11.472Z,10.58
2018-04-04T04:45:11.600Z,10.54
2018-04-04T04:46:11.732Z,10.55
2018-04-04T04:47:11.866Z,10.67
2018-04-04T04:48:12.002Z,10.68
2018-04-04T04:49:12.142Z,10.78
2018-04-04T04:50:12.276Z,10.79
2018-04-04T04:51:12.409Z,10.87
2018-04-04T04:52:12.552Z,10.95
2018-04-04T04:53:12.687Z,11.01
2018-04-04T04:54:12.821Z,10.97
2018-04-04T04:55:12.961Z,11.12
2018-04-04T04:56:13.107Z,11.05
2018-04-04T04:57:13.241Z,11.08
2018-04-04T04:58:13.374Z,11.16
2018-04-04T04:59:13.509Z,11.11
2018-04-04T05:00:13.650Z,11.09
2018-04-04T05:01:13.779Z,11.05
2018-04-04T05:02:13.924Z,11.11
2018-04-04T05:03:14.050Z,11.08
2018-04-04T05:04:14.194Z,11.05
2018-04-04T05:05:14.330Z,11.15
2018-04-04T05:06:14.464Z,11.13
2018-04-04T05:07:14.603Z,11.13
2018-04-04T05:08:14.740Z,11.12
2018-04-04T05:09:14.881Z,11.23
2018-04-04T05:10:15.019Z,11.19
2018-04-04T05:11:15.154Z,11.20
2018-04-04T05:12:15.295Z,11.16
2018-04-04T05:13:15.427Z,11.18
2018-04-04T05:14:15.568Z,11.15
2018-04-04T05:15:15.712Z,11.12
2018-04-04T05:16:15.847Z,11.13
2018-04-04T05:17:15.979Z,11.09
2018-04-04T05:18:16.122Z,11.12
2018-04-04T05:19:16.265Z,11.16
2018-04-04T05:20:16.393Z,11.12
2018-04-04T05:21:16.537Z,11.19
2018-04-04T05:22:16.681Z,11.11
2018-04-04T05:23:16.823Z,11.08
2018-04-04T05:24:16.959Z,11.09
2018-04-04T05:25:17.096Z,11.09
2018-04-04T05:26:17.231Z,11.12
2018-04-04T05:27:17.365Z,11.18
2018-04-04T05:28:17.495Z,11.15
2018-04-04T05:29:17.653Z,11.15
2018-04-04T05:30:17.787Z,11.12
2018-04-04T05:31:17.925Z,11.18
2018-04-04T05:32:18.068Z,11.12
2018-04-04T05:33:18.200Z,11.13
2018-04-04T05:34:18.326Z,11.16
2018-04-04T05:35:18.463Z,11.22
2018-04-04T05:36:18.602Z,11.13
2018-04-04T05:37:18.734Z,11.16
2018-04-04T05:38:18.873Z,11.04
2018-04-04T05:39:19.019Z,10.86
2018-04-04T05:40:19.151Z,10.87
2018-04-04T05:41:19.317Z,10.91
2018-04-04T05:42:19.479Z,10.94
2018-04-04T05:43:19.601Z,10.98
2018-04-04T05:44:19.733Z,10.98
2018-04-04T05:45:19.885Z,11.01
2018-04-04T05:46:20.018Z,11.00
2018-04-04T05:47:20.155Z,11.11
2018-04-04T05:48:20.287Z,10.95
2018-04-04T05:49:20.451Z,11.09
2018-04-04T05:50:20.582Z,11.01
2018-04-04T05:51:20.720Z,10.98
2018-04-04T05:52:20.855Z,10.85
2018-04-04T05:53:21.026Z,10.93
2018-04-04T05:54:21.134Z,10.83
2018-04-04T05:55:21.269Z,10.78
2018-04-04T05:56:21.416Z,10.85
2018-04-04T05:57:21.554Z,10.90
2018-04-04T05:58:21.688Z,10.90
2018-04-04T05:59:21.873Z,10.72
2018-04-04T06:00:21.957Z,10.79
2018-04-04T06:01:22.096Z,10.83
2018-04-04T06:02:22.226Z,10.90
2018-04-04T06:03:22.367Z,10.86
2018-04-04T06:04:22.534Z,11.00
2018-04-04T06:05:22.660Z,11.05
2018-04-04T06:06:22.791Z,10.98
2018-04-04T06:07:22.934Z,11.04
2018-04-04T06:08:23.065Z,11.04
2018-04-04T06:09:23.200Z,11.00
2018-04-04T06:10:23.338Z,11.05
2018-04-04T06:11:23.478Z,11.09
2018-04-04T06:12:23.616Z,11.08
2018-04-04T06:13:23.753Z,11.20
2018-04-04T06:14:23.891Z,11.16
2018-04-04T06:15:24.029Z,11.15
2018-04-04T06:16:24.164Z,11.23
2018-04-04T06:17:24.300Z,11.22
2018-04-04T06:18:24.436Z,11.18
2018-04-04T06:19:24.582Z,11.18
2018-04-04T06:20:25.545Z,11.20
2018-04-04T06:21:24.888Z,11.19
2018-04-04T06:22:25.029Z,11.27
2018-04-04T06:23:25.172Z,11.30
2018-04-04T06:24:25.332Z,11.38
2018-04-04T06:25:25.466Z,11.34
2018-04-04T06:26:25.601Z,11.36
2018-04-04T06:27:25.742Z,11.49
2018-04-04T06:28:25.877Z,11.49
2018-04-04T06:29:26.013Z,11.51
2018-04-04T06:30:26.161Z,11.49
2018-04-04T06:31:26.302Z,11.61
2018-04-04T06:32:26.441Z,11.67
2018-04-04T06:33:26.575Z,11.80
2018-04-04T06:34:26.729Z,11.73
2018-04-04T06:35:26.856Z,11.77
2018-04-04T06:36:26.997Z,11.77
2018-04-04T06:37:27.137Z,11.87
2018-04-04T06:38:27.274Z,11.87
2018-04-04T06:39:27.456Z,11.91
2018-04-04T06:40:27.549Z,11.93
2018-04-04T06:41:27.686Z,12.04
2018-04-04T06:42:27.858Z,12.14
2018-04-04T06:43:27.982Z,12.05
2018-04-04T06:44:28.123Z,12.07
2018-04-04T06:45:28.267Z,12.17
2018-04-04T06:46:28.434Z,12.21
2018-04-04T06:47:28.566Z,12.28
2018-04-04T06:48:28.716Z,12.25
2018-04-04T06:49:28.848Z,12.23
2018-04-04T06:50:29.003Z,12.29
2018-04-04T06:51:29.138Z,12.41
2018-04-04T06:52:29.276Z,12.46
2018-04-04T06:53:29.428Z,12.44
2018-04-04T06:54:29.571Z,12.33
2018-04-04T06:55:29.706Z,12.46
2018-04-04T06:56:29.864Z,12.46
2018-04-04T06:57:30.001Z,12.51
2018-04-04T06:58:30.144Z,12.35
2018-04-04T06:59:30.274Z,12.08
2018-04-04T07:00:30.417Z,12.05
2018-04-04T07:01:30.554Z,12.21
2018-04-04T07:02:30.692Z,12.23
2018-04-04T07:03:30.828Z,12.23
2018-04-04T07:04:30.973Z,12.22
2018-04-04T07:05:31.110Z,12.25
2018-04-04T07:06:31.248Z,12.25
2018-04-04T07:07:31.545Z,12.22
2018-04-04T07:08:31.522Z,12.22
2018-04-04T07:09:31.656Z,12.10
2018-04-04T07:10:31.793Z,12.22
2018-04-04T07:11:31.926Z,12.32
2018-04-04T07:12:32.065Z,12.28
2018-04-04T07:13:32.202Z,12.35
2018-04-04T07:14:32.338Z,12.47
2018-04-04T07:15:32.481Z,12.35
2018-04-04T07:16:32.623Z,12.47
2018-04-04T07:17:32.760Z,12.41
2018-04-04T07:18:32.898Z,12.59
2018-04-04T07:19:33.073Z,12.61
2018-04-04T07:20:33.108Z,12.58
2018-04-04T07:21:33.240Z,12.69
2018-04-04T07:22:33.386Z,12.79
2018-04-04T07:23:33.524Z,12.80
2018-04-04T07:24:33.670Z,12.84
2018-04-04T07:25:33.807Z,12.91
2018-04-04T07:26:33.946Z,12.99
2018-04-04T07:27:34.098Z,12.98
2018-04-04T07:28:34.227Z,13.02
2018-04-04T07:29:34.379Z,13.05
2018-04-04T07:30:34.518Z,13.19
2018-04-04T07:31:34.674Z,13.08
2018-04-04T07:32:34.809Z,13.14
2018-04-04T07:33:34.945Z,13.23
2018-04-04T07:34:35.080Z,13.19
2018-04-04T07:35:35.273Z,13.20
2018-04-04T07:36:35.420Z,13.32
2018-04-04T07:37:35.566Z,13.32
2018-04-04T07:38:35.698Z,13.29
2018-04-04T07:39:35.864Z,13.20
2018-04-04T07:40:35.990Z,13.21
2018-04-04T07:41:36.130Z,13.24
2018-04-04T07:42:36.267Z,13.24
2018-04-04T07:43:36.418Z,13.32
2018-04-04T07:44:36.570Z,13.32
2018-04-04T07:45:36.706Z,13.20
2018-04-04T07:46:36.837Z,13.21
2018-04-04T07:47:36.974Z,13.27
2018-04-04T07:48:37.115Z,13.30
2018-04-04T07:49:37.249Z,13.39
2018-04-04T07:50:37.382Z,13.26
2018-04-04T07:51:37.548Z,13.23
2018-04-04T07:52:37.734Z,13.08
2018-04-04T07:53:37.862Z,12.99
2018-04-04T07:54:38.023Z,12.99
2018-04-04T07:55:38.184Z,12.98
2018-04-04T07:56:38.317Z,12.93
2018-04-04T07:57:38.485Z,12.95
2018-04-04T07:58:38.713Z,13.02
2018-04-04T07:59:38.705Z,13.06
2018-04-04T08:00:38.844Z,13.19
2018-04-04T08:01:38.984Z,13.20
2018-04-04T08:02:39.139Z,13.24
2018-04-04T08:03:39.324Z,13.30
2018-04-04T08:04:39.472Z,13.27
2018-04-04T08:05:39.616Z,13.42
2018-04-04T08:06:39.749Z,13.46
2018-04-04T08:07:39.886Z,13.49
2018-04-04T08:08:40.021Z,13.55
2018-04-04T08:09:40.166Z,13.61
2018-04-04T08:10:40.301Z,13.71
2018-04-04T08:11:40.438Z,13.63
2018-04-04T08:12:40.573Z,13.72
2018-04-04T08:13:40.712Z,13.72
2018-04-04T08:14:40.848Z,13.72
2018-04-04T08:15:40.994Z,13.76
2018-04-04T08:16:41.133Z,13.82
2018-04-04T08:17:41.280Z,13.93
2018-04-04T08:18:41.418Z,13.85
2018-04-04T08:19:41.560Z,13.96
2018-04-04T08:20:41.699Z,13.83
2018-04-04T08:21:41.839Z,13.67
2018-04-04T08:22:41.983Z,13.75
2018-04-04T08:23:42.121Z,13.72
2018-04-04T08:24:42.259Z,13.68
2018-04-04T08:25:42.398Z,13.64
2018-04-04T08:26:42.580Z,13.65
2018-04-04T08:27:42.758Z,13.71
2018-04-04T08:28:42.853Z,13.78
2018-04-04T08:29:42.987Z,13.68
2018-04-04T08:30:43.147Z,13.72
2018-04-04T08:31:43.285Z,13.91
2018-04-04T08:32:43.450Z,13.97
2018-04-04T08:33:43.581Z,14.19
2018-04-04T08:34:43.734Z,14.21
2018-04-04T08:35:43.865Z,14.44
2018-04-04T08:36:44.019Z,14.59
2018-04-04T08:37:44.153Z,14.66
2018-04-04T08:38:44.292Z,14.73
2018-04-04T08:39:44.433Z,14.90
2018-04-04T08:40:44.597Z,15.01
2018-04-04T08:41:44.719Z,14.99
2018-04-04T08:42:44.861Z,14.85
2018-04-04T08:43:45.002Z,15.03
2018-04-04T08:44:45.174Z,15.11
2018-04-04T08:45:45.284Z,15.14
2018-04-04T08:46:45.425Z,15.20
2018-04-04T08:47:45.566Z,15.19
2018-04-04T08:48:45.705Z,15.22
2018-04-04T08:49:45.849Z,15.07
2018-04-04T08:50:45.978Z,15.01
2018-04-04T08:51:46.128Z,15.05
2018-04-04T08:52:46.265Z,14.96
2018-04-04T08:53:46.405Z,14.92
2018-04-04T08:54:46.542Z,14.87
2018-04-04T08:55:46.684Z,14.89
2018-04-04T08:56:46.827Z,14.95
2018-04-04T08:57:46.963Z,14.89
2018-04-04T08:58:47.109Z,14.90
2018-04-04T08:59:47.250Z,14.93
2018-04-04T09:00:47.388Z,14.86
2018-04-04T09:01:47.525Z,14.89
2018-04-04T09:02:47.686Z,14.96
2018-04-04T09:03:47.813Z,14.96
2018-04-04T09:04:47.953Z,14.99
2018-04-04T09:05:48.090Z,15.04
2018-04-04T09:06:48.253Z,15.20
2018-04-04T09:07:48.388Z,15.23
2018-04-04T09:08:48.513Z,15.44
2018-04-04T09:09:48.660Z,15.47
2018-04-04T09:10:48.837Z,15.40
2018-04-04T09:11:48.977Z,15.32
2018-04-04T09:12:49.124Z,15.19
2018-04-04T09:13:49.261Z,15.30
2018-04-04T09:14:49.420Z,15.26
2018-04-04T09:15:49.593Z,15.27
2018-04-04T09:16:49.731Z,15.30
2018-04-04T09:17:49.868Z,15.26
2018-04-04T09:18:50.024Z,15.27
2018-04-04T09:19:50.159Z,15.22
2018-04-04T09:20:50.300Z,15.10
2018-04-04T09:21:50.437Z,15.17
2018-04-04T09:22:50.591Z,15.01
2018-04-04T09:23:50.725Z,14.96
2018-04-04T09:24:50.872Z,14.99
2018-04-04T09:25:51.006Z,14.96
2018-04-04T09:26:51.162Z,15.10
2018-04-04T09:27:51.299Z,15.22
2018-04-04T09:28:51.440Z,15.27
2018-04-04T09:29:51.585Z,15.19
2018-04-04T09:30:51.751Z,15.12
2018-04-04T09:31:51.885Z,15.20
2018-04-04T09:32:52.022Z,15.26
2018-04-04T09:33:52.187Z,15.32
2018-04-04T09:34:52.337Z,15.23
2018-04-04T09:35:52.471Z,15.25
2018-04-04T09:36:52.610Z,15.20
2018-04-04T09:37:52.761Z,14.99
2018-04-04T09:38:52.968Z,15.07
2018-04-04T09:39:52.964Z,15.07
2018-04-04T09:40:53.107Z,15.07
2018-04-04T09:41:53.270Z,15.04
2018-04-04T09:42:53.414Z,14.96
2018-04-04T09:43:53.556Z,14.99
2018-04-04T09:44:53.700Z,15.05
2018-04-04T09:45:53.860Z,15.19
2018-04-04T09:46:54.099Z,15.20
2018-04-04T09:47:54.108Z,15.20
2018-04-04T09:48:54.252Z,15.26
2018-04-04T09:49:54.392Z,15.17
2018-04-04T09:50:54.533Z,15.26
2018-04-04T09:51:54.668Z,15.30
2018-04-04T09:52:54.812Z,15.41
2018-04-04T09:53:54.955Z,15.32
2018-04-04T09:54:55.091Z,15.43
2018-04-04T09:55:55.233Z,15.33
2018-04-04T09:56:55.367Z,15.38
2018-04-04T09:57:55.509Z,15.40
2018-04-04T09:58:55.649Z,15.44
2018-04-04T09:59:55.787Z,15.45
2018-04-04T10:00:55.928Z,15.54
2018-04-04T10:01:56.062Z,15.59
2018-04-04T10:02:56.201Z,15.62
2018-04-04T10:03:56.345Z,15.77
2018-04-04T10:04:56.486Z,15.63
2018-04-04T10:05:56.623Z,15.70
2018-04-04T10:06:56.761Z,15.83
2018-04-04T10:07:56.909Z,15.81
2018-04-04T10:08:57.054Z,15.88
2018-04-04T10:09:57.184Z,15.99
2018-04-04T10:10:57.334Z,16.02
2018-04-04T10:11:57.472Z,16.10
2018-04-04T10:12:57.608Z,16.10
2018-04-04T10:13:57.746Z,16.18
2018-04-04T10:14:57.880Z,16.29
2018-04-04T10:15:58.016Z,16.34
2018-04-04T10:16:58.157Z,16.18
2018-04-04T10:17:58.376Z,16.43
2018-04-04T10:18:58.424Z,16.51
2018-04-04T10:19:58.622Z,16.61
2018-04-04T10:20:58.629Z,16.58
2018-04-04T10:21:58.771Z,16.61
2018-04-04T10:22:58.915Z,16.79
2018-04-04T10:23:59.050Z,16.80
2018-04-04T10:24:59.198Z,17.02
2018-04-04T10:25:59.335Z,17.27
2018-04-04T10:26:59.533Z,17.30
2018-04-04T10:27:59.692Z,17.34
2018-04-04T10:28:59.830Z,17.25
2018-04-04T10:29:59.964Z,17.32
2018-04-04T10:31:00.127Z,17.41
2018-04-04T10:32:00.262Z,17.50
2018-04-04T10:33:00.402Z,17.41
2018-04-04T10:34:00.543Z,17.41
2018-04-04T10:35:01.253Z,17.63
2018-04-04T10:36:00.756Z,17.63
2018-04-04T10:37:00.899Z,17.73
2018-04-04T10:38:01.047Z,17.79
2018-04-04T10:39:01.218Z,17.86
2018-04-04T10:40:01.422Z,17.62
2018-04-04T10:41:02.104Z,17.78
2018-04-04T10:42:01.789Z,17.76
2018-04-04T10:43:01.926Z,17.59
2018-04-04T10:44:02.074Z,17.56
2018-04-04T10:45:02.211Z,17.63
2018-04-04T10:46:02.363Z,17.46
2018-04-04T10:47:02.501Z,17.47
2018-04-04T10:48:02.635Z,17.43
2018-04-04T10:49:02.783Z,17.34
2018-04-04T10:50:02.972Z,17.30
2018-04-04T10:51:03.082Z,17.25
2018-04-04T10:52:03.230Z,17.25
2018-04-04T10:53:03.370Z,17.24
2018-04-04T10:54:03.523Z,17.06
2018-04-04T10:55:03.666Z,17.02
2018-04-04T10:56:03.813Z,17.01
2018-04-04T10:57:03.954Z,16.98
2018-04-04T10:58:04.125Z,16.88
2018-04-04T10:59:04.260Z,16.91
2018-04-04T11:00:04.401Z,16.98
2018-04-04T11:01:04.544Z,16.88
2018-04-04T11:02:04.699Z,16.82
2018-04-04T11:03:04.839Z,16.74
2018-04-04T11:04:04.983Z,16.74
2018-04-04T11:05:05.122Z,16.61
2018-04-04T11:06:05.268Z,16.61
2018-04-04T11:07:05.474Z,16.62
2018-04-04T11:08:05.560Z,16.65
2018-04-04T11:09:05.700Z,16.72
2018-04-04T11:10:08.006Z,16.80
2018-04-04T11:11:11.288Z,16.65
2018-04-04T11:12:21.355Z,16.80
2018-04-04T11:13:06.297Z,16.67
2018-04-04T11:14:06.432Z,16.72
2018-04-04T11:15:06.597Z,16.65
2018-04-04T11:16:06.726Z,16.69
2018-04-04T11:17:06.891Z,16.91
2018-04-04T11:18:07.029Z,16.74
2018-04-04T11:19:07.168Z,16.95
2018-04-04T11:20:07.308Z,17.01
2018-04-04T11:21:08.417Z,17.02
2018-04-04T11:22:07.557Z,17.01
2018-04-04T11:23:07.721Z,17.07
2018-04-04T11:24:07.858Z,17.09
2018-04-04T11:25:07.992Z,17.27
2018-04-04T11:26:08.124Z,17.84
2018-04-04T11:27:08.268Z,18.41
2018-04-04T11:28:08.417Z,18.58
2018-04-04T11:29:08.557Z,19.38
2018-04-04T11:30:08.693Z,19.97
2018-04-04T11:31:08.837Z,19.90
2018-04-04T11:32:08.979Z,20.32
2018-04-04T11:33:09.129Z,20.82
2018-04-04T11:34:09.268Z,19.86
2018-04-04T11:35:09.404Z,19.27
2018-04-04T11:36:09.550Z,19.01
2018-04-04T11:37:09.688Z,19.16
2018-04-04T11:38:09.835Z,19.67
2018-04-04T11:39:09.973Z,19.93
2018-04-04T11:40:10.117Z,20.50
2018-04-04T11:41:10.257Z,21.05
2018-04-04T11:42:10.403Z,21.74
2018-04-04T11:43:10.547Z,21.34
2018-04-04T11:44:10.688Z,21.35
2018-04-04T11:45:10.849Z,21.71
2018-04-04T11:46:11.140Z,22.48
2018-04-04T11:47:11.156Z,22.56
2018-04-04T11:48:11.300Z,23.25
2018-04-04T11:49:11.449Z,23.91
2018-04-04T11:50:21.451Z,24.76
2018-04-04T11:51:11.714Z,25.08
2018-04-04T11:52:11.859Z,24.74
2018-04-04T11:53:12.012Z,25.77
2018-04-04T11:54:12.180Z,25.53
2018-04-04T11:55:12.336Z,25.06
2018-04-04T11:56:12.486Z,24.68
2018-04-04T11:57:12.635Z,23.51
2018-04-04T11:58:12.803Z,22.25
2018-04-04T11:59:12.957Z,21.88
2018-04-04T12:00:13.102Z,21.91
2018-04-04T12:01:13.254Z,23.14
2018-04-04T12:02:13.405Z,24.10
2018-04-04T12:03:13.543Z,25.06
2018-04-04T12:04:14.565Z,25.93
2018-04-04T12:05:13.865Z,26.61
2018-04-04T12:06:14.010Z,26.23
2018-04-04T12:07:14.194Z,26.30
2018-04-04T12:08:14.345Z,25.41
2018-04-04T12:09:14.500Z,24.75
2018-04-04T12:10:14.649Z,23.70
2018-04-04T12:11:14.820Z,24.04
2018-04-04T12:12:14.958Z,24.82
2018-04-04T12:13:15.101Z,24.85
2018-04-04T12:14:15.255Z,25.78
2018-04-04T12:15:15.415Z,25.71
2018-04-04T12:16:15.560Z,25.55
2018-04-04T12:17:15.721Z,25.30
2018-04-04T12:18:15.863Z,24.78
2018-04-04T12:19:16.024Z,25.51
2018-04-04T12:20:16.178Z,26.12
2018-04-04T12:21:16.331Z,26.53
2018-04-04T12:22:16.493Z,26.94
2018-04-04T12:23:16.626Z,27.03
2018-04-04T12:24:16.775Z,27.60
2018-04-04T12:25:16.922Z,27.41
2018-04-04T12:26:17.082Z,28.06
2018-04-04T12:27:17.230Z,28.72
2018-04-04T12:28:17.383Z,29.65
2018-04-04T12:29:17.548Z,28.79
2018-04-04T12:30:17.691Z,28.06
2018-04-04T12:31:17.836Z,28.34
2018-04-04T12:32:17.987Z,27.44
2018-04-04T12:33:18.144Z,27.61
2018-04-04T12:34:18.297Z,26.88
2018-04-04T12:35:18.452Z,25.53
2018-04-04T12:36:18.601Z,24.18
2018-04-04T12:37:18.757Z,22.86
2018-04-04T12:38:18.986Z,22.18
2018-04-04T12:39:19.025Z,21.80
2018-04-04T12:40:19.172Z,21.44
2018-04-04T12:41:19.351Z,21.43
2018-04-04T12:42:19.525Z,22.01
2018-04-04T12:43:19.683Z,23.76
2018-04-04T12:44:19.831Z,24.65
2018-04-04T12:45:19.974Z,26.11
2018-04-04T12:46:20.127Z,25.93
2018-04-04T12:47:20.286Z,26.97
2018-04-04T12:48:20.429Z,26.90
2018-04-04T12:49:20.590Z,27.75
2018-04-04T12:50:20.743Z,28.24
2018-04-04T12:51:20.933Z,27.94
2018-04-04T12:52:21.095Z,28.47
2018-04-04T12:53:21.245Z,27.34
2018-04-04T12:54:21.396Z,26.07
2018-04-04T12:55:21.635Z,25.34
2018-04-04T12:56:21.724Z,24.66